sensor_id;sensor_type;location;lat;lon;timestamp;pressure;altitude;pressure_sealevel;temperature;humidity
35121;BME280;21297;52.008;4.576;2023-06-05T00:00:30;49233.00;;;-143.47;99.49
35121;BME280;21297;52.008;4.576;2023-06-05T00:03:16;49236.94;;;-143.47;97.72
35121;BME280;21297;52.008;4.576;2023-06-05T00:06:03;49209.41;;;-143.47;100.00
35121;BME280;21297;52.008;4.576;2023-06-05T00:08:49;49229.06;;;-143.47;100.00
35121;BME280;21297;52.008;4.576;2023-06-05T00:11:35;49209.41;;;-143.47;100.00
35121;BME280;21297;52.008;4.576;2023-06-05T00:14:21;49250.69;;;-143.47;99.10
35121;BME280;21297;52.008;4.576;2023-06-05T00:17:07;49248.72;;;-143.47;97.70
35121;BME280;21297;52.008;4.576;2023-06-05T00:19:52;49231.03;;;-143.47;99.60
35121;BME280;21297;52.008;4.576;2023-06-05T00:22:39;49231.03;;;-143.47;99.83
35121;BME280;21297;52.008;4.576;2023-06-05T00:25:25;49248.72;;;-143.47;100.00
35121;BME280;21297;52.008;4.576;2023-06-05T00:28:10;49250.69;;;-143.47;97.39
35121;BME280;21297;52.008;4.576;2023-06-05T00:30:56;49248.72;;;-143.47;99.05
35121;BME280;21297;52.008;4.576;2023-06-05T00:33:42;49189.72;;;-143.47;100.00
35121;BME280;21297;52.008;4.576;2023-06-05T00:36:28;49189.72;;;-143.47;100.00
35121;BME280;21297;52.008;4.576;2023-06-05T00:39:14;49175.97;;;-143.47;100.00
35121;BME280;21297;52.008;4.576;2023-06-05T00:41:59;49209.41;;;-143.47;99.65
35121;BME280;21297;52.008;4.576;2023-06-05T00:44:45;49179.91;;;-143.47;99.07
35121;BME280;21297;52.008;4.576;2023-06-05T00:47:34;49189.72;;;-143.47;100.00
35121;BME280;21297;52.008;4.576;2023-06-05T00:50:20;49162.19;;;-143.47;100.00
35121;BME280;21297;52.008;4.576;2023-06-05T00:53:07;49164.16;;;-143.47;100.00
35121;BME280;21297;52.008;4.576;2023-06-05T00:55:53;49177.94;;;-143.47;100.00
35121;BME280;21297;52.008;4.576;2023-06-05T00:58:38;49177.94;;;-143.47;100.00
35121;BME280;21297;52.008;4.576;2023-06-05T01:01:24;49179.91;;;-143.47;100.00
35121;BME280;21297;52.008;4.576;2023-06-05T01:04:11;49174.00;;;-143.47;100.00
35121;BME280;21297;52.008;4.576;2023-06-05T01:06:57;49177.94;;;-143.47;100.00
35121;BME280;21297;52.008;4.576;2023-06-05T01:09:43;49144.50;;;-143.47;100.00
35121;BME280;21297;52.008;4.576;2023-06-05T01:12:53;49174.00;;;-143.47;100.00
35121;BME280;21297;52.008;4.576;2023-06-05T01:15:43;49221.19;;;-143.47;100.00
35121;BME280;21297;52.008;4.576;2023-06-05T01:18:29;49160.25;;;-143.47;100.00
35121;BME280;21297;52.008;4.576;2023-06-05T01:21:16;49158.28;;;-143.47;100.00
35121;BME280;21297;52.008;4.576;2023-06-05T01:24:01;49203.50;;;-143.47;100.00
35121;BME280;21297;52.008;4.576;2023-06-05T01:30:03;49158.28;;;-143.47;100.00
35121;BME280;21297;52.008;4.576;2023-06-05T01:32:54;49197.59;;;-143.47;100.00
35121;BME280;21297;52.008;4.576;2023-06-05T01:35:40;49201.53;;;-143.47;100.00
35121;BME280;21297;52.008;4.576;2023-06-05T01:38:27;49187.78;;;-143.47;100.00
35121;BME280;21297;52.008;4.576;2023-06-05T01:41:13;49217.28;;;-143.47;100.00
35121;BME280;21297;52.008;4.576;2023-06-05T01:44:00;49201.53;;;-143.47;100.00
35121;BME280;21297;52.008;4.576;2023-06-05T01:46:46;49174.00;;;-143.47;100.00
35121;BME280;21297;52.008;4.576;2023-06-05T01:49:32;49142.53;;;-143.47;100.00
35121;BME280;21297;52.008;4.576;2023-06-05T01:52:19;49197.59;;;-143.47;100.00
35121;BME280;21297;52.008;4.576;2023-06-05T01:55:06;49189.72;;;-143.47;100.00
35121;BME280;21297;52.008;4.576;2023-06-05T01:57:52;49175.97;;;-143.47;100.00
35121;BME280;21297;52.008;4.576;2023-06-05T02:00:38;49130.75;;;-143.47;100.00
35121;BME280;21297;52.008;4.576;2023-06-05T02:03:24;49162.19;;;-143.47;100.00
35121;BME280;21297;52.008;4.576;2023-06-05T02:06:10;49150.41;;;-143.47;100.00
35121;BME280;21297;52.008;4.576;2023-06-05T02:08:55;49181.88;;;-143.47;100.00
35121;BME280;21297;52.008;4.576;2023-06-05T02:11:42;49134.66;;;-143.47;100.00
35121;BME280;21297;52.008;4.576;2023-06-05T02:14:28;49158.28;;;-143.47;100.00
35121;BME280;21297;52.008;4.576;2023-06-05T02:17:14;49170.06;;;-143.47;100.00
35121;BME280;21297;52.008;4.576;2023-06-05T02:20:00;49174.00;;;-143.47;100.00
35121;BME280;21297;52.008;4.576;2023-06-05T02:22:46;49122.88;;;-143.47;100.00
35121;BME280;21297;52.008;4.576;2023-06-05T02:25:35;49158.28;;;-143.47;100.00
35121;BME280;21297;52.008;4.576;2023-06-05T02:28:21;49154.34;;;-143.47;100.00
35121;BME280;21297;52.008;4.576;2023-06-05T02:31:06;49156.31;;;-143.47;100.00
35121;BME280;21297;52.008;4.576;2023-06-05T02:33:53;49128.78;;;-143.47;100.00
35121;BME280;21297;52.008;4.576;2023-06-05T02:36:39;49109.09;;;-143.47;100.00
35121;BME280;21297;52.008;4.576;2023-06-05T02:39:26;49124.84;;;-143.47;100.00
35121;BME280;21297;52.008;4.576;2023-06-05T02:42:11;49166.13;;;-143.47;100.00
35121;BME280;21297;52.008;4.576;2023-06-05T02:44:58;49146.47;;;-143.47;100.00
35121;BME280;21297;52.008;4.576;2023-06-05T02:47:43;49126.81;;;-143.47;100.00
35121;BME280;21297;52.008;4.576;2023-06-05T02:50:29;49093.38;;;-143.47;100.00
35121;BME280;21297;52.008;4.576;2023-06-05T02:53:15;49122.88;;;-143.47;100.00
35121;BME280;21297;52.008;4.576;2023-06-05T02:56:01;49122.88;;;-143.47;100.00
35121;BME280;21297;52.008;4.576;2023-06-05T02:58:47;49118.94;;;-143.47;100.00
35121;BME280;21297;52.008;4.576;2023-06-05T03:01:32;49142.53;;;-143.47;100.00
35121;BME280;21297;52.008;4.576;2023-06-05T03:04:20;49126.81;;;-143.47;100.00
35121;BME280;21297;52.008;4.576;2023-06-05T03:07:09;49172.03;;;-143.47;100.00
35121;BME280;21297;52.008;4.576;2023-06-05T03:09:58;49160.25;;;-143.47;100.00
35121;BME280;21297;52.008;4.576;2023-06-05T03:12:43;49103.22;;;-143.47;99.75
35121;BME280;21297;52.008;4.576;2023-06-05T03:15:29;49115.00;;;-143.47;100.00
35121;BME280;21297;52.008;4.576;2023-06-05T03:18:15;49126.81;;;-143.47;100.00
35121;BME280;21297;52.008;4.576;2023-06-05T03:21:01;49101.25;;;-143.47;100.00
35121;BME280;21297;52.008;4.576;2023-06-05T03:23:46;49118.94;;;-143.47;100.00
35121;BME280;21297;52.008;4.576;2023-06-05T03:26:32;49193.66;;;-143.47;98.71
35121;BME280;21297;52.008;4.576;2023-06-05T03:29:18;49138.59;;;-143.47;99.93
35121;BME280;21297;52.008;4.576;2023-06-05T03:32:03;49158.28;;;-143.47;99.98
35121;BME280;21297;52.008;4.576;2023-06-05T03:34:49;49166.13;;;-143.47;99.30
35121;BME280;21297;52.008;4.576;2023-06-05T03:37:35;49118.94;;;-143.47;100.00
35121;BME280;21297;52.008;4.576;2023-06-05T03:40:21;49105.19;;;-143.47;99.83
35121;BME280;21297;52.008;4.576;2023-06-05T03:43:07;49134.66;;;-143.47;100.00
35121;BME280;21297;52.008;4.576;2023-06-05T03:45:53;49087.47;;;-143.47;100.00
35121;BME280;21297;52.008;4.576;2023-06-05T03:48:38;49063.88;;;-143.47;100.00
35121;BME280;21297;52.008;4.576;2023-06-05T03:51:25;49111.06;;;-143.47;100.00
35121;BME280;21297;52.008;4.576;2023-06-05T03:54:15;49150.41;;;-143.47;100.00
35121;BME280;21297;52.008;4.576;2023-06-05T03:57:02;49136.63;;;-143.47;100.00
35121;BME280;21297;52.008;4.576;2023-06-05T03:59:48;49142.53;;;-143.47;100.00
35121;BME280;21297;52.008;4.576;2023-06-05T04:02:33;49142.53;;;-143.47;99.68
35121;BME280;21297;52.008;4.576;2023-06-05T04:05:19;49075.69;;;-143.47;100.00
35121;BME280;21297;52.008;4.576;2023-06-05T04:08:05;49134.66;;;-143.47;100.00
35121;BME280;21297;52.008;4.576;2023-06-05T04:10:52;49097.31;;;-143.47;100.00
35121;BME280;21297;52.008;4.576;2023-06-05T04:13:38;49122.88;;;-143.47;100.00
35121;BME280;21297;52.008;4.576;2023-06-05T04:16:23;49101.25;;;-143.47;100.00
35121;BME280;21297;52.008;4.576;2023-06-05T04:19:11;49111.06;;;-143.47;100.00
35121;BME280;21297;52.008;4.576;2023-06-05T04:21:57;49140.56;;;-143.47;99.99
35121;BME280;21297;52.008;4.576;2023-06-05T04:24:42;49130.75;;;-143.47;98.35
35121;BME280;21297;52.008;4.576;2023-06-05T04:27:28;49142.53;;;-143.47;98.54
35121;BME280;21297;52.008;4.576;2023-06-05T04:30:14;49138.59;;;-143.47;97.93
35121;BME280;21297;52.008;4.576;2023-06-05T04:32:59;49132.72;;;-143.47;97.14
35121;BME280;21297;52.008;4.576;2023-06-05T04:35:45;49158.28;;;-143.47;95.58
35121;BME280;21297;52.008;4.576;2023-06-05T04:38:31;49166.13;;;-143.47;95.79
35121;BME280;21297;52.008;4.576;2023-06-05T04:41:17;49187.78;;;-143.47;95.26
35121;BME280;21297;52.008;4.576;2023-06-05T04:44:02;49174.00;;;-143.47;94.67
35121;BME280;21297;52.008;4.576;2023-06-05T04:46:48;49211.38;;;-143.47;93.38
35121;BME280;21297;52.008;4.576;2023-06-05T04:49:34;49199.56;;;-143.47;92.97
35121;BME280;21297;52.008;4.576;2023-06-05T04:52:19;49185.81;;;-143.47;93.84
35121;BME280;21297;52.008;4.576;2023-06-05T04:55:08;49225.13;;;-143.47;92.15
35121;BME280;21297;52.008;4.576;2023-06-05T04:57:54;49201.53;;;-143.47;92.86
35121;BME280;21297;52.008;4.576;2023-06-05T05:00:46;49242.84;;;-143.47;92.53
35121;BME280;21297;52.008;4.576;2023-06-05T05:03:34;49205.47;;;-143.47;92.65
35121;BME280;21297;52.008;4.576;2023-06-05T05:06:21;49256.59;;;-143.47;92.01
35121;BME280;21297;52.008;4.576;2023-06-05T05:09:07;49256.59;;;-143.47;90.32
35121;BME280;21297;52.008;4.576;2023-06-05T05:11:54;49268.41;;;-143.47;91.44
35121;BME280;21297;52.008;4.576;2023-06-05T05:14:40;49256.59;;;-143.47;92.32
35121;BME280;21297;52.008;4.576;2023-06-05T05:17:25;49262.50;;;-143.47;92.46
35121;BME280;21297;52.008;4.576;2023-06-05T05:20:11;49260.53;;;-143.47;91.48
35121;BME280;21297;52.008;4.576;2023-06-05T05:22:57;49256.59;;;-143.47;92.56
35121;BME280;21297;52.008;4.576;2023-06-05T05:25:44;49264.47;;;-143.47;91.05
35121;BME280;21297;52.008;4.576;2023-06-05T05:28:30;49229.06;;;-143.47;92.71
35121;BME280;21297;52.008;4.576;2023-06-05T05:31:16;49240.88;;;-143.47;93.32
35121;BME280;21297;52.008;4.576;2023-06-05T05:34:03;49254.63;;;-143.47;91.94
35121;BME280;21297;52.008;4.576;2023-06-05T05:36:48;49311.66;;;-143.47;90.56
35121;BME280;21297;52.008;4.576;2023-06-05T05:39:34;49299.88;;;-143.47;91.11
35121;BME280;21297;52.008;4.576;2023-06-05T05:42:20;49317.56;;;-143.47;90.05
35121;BME280;21297;52.008;4.576;2023-06-05T05:45:06;49272.34;;;-143.47;89.81
35121;BME280;21297;52.008;4.576;2023-06-05T05:47:52;49358.88;;;-143.47;88.60
35121;BME280;21297;52.008;4.576;2023-06-05T05:50:38;49301.84;;;-143.47;88.00
35121;BME280;21297;52.008;4.576;2023-06-05T05:53:25;49278.22;;;-143.47;89.11
35121;BME280;21297;52.008;4.576;2023-06-05T05:56:11;49343.13;;;-143.47;88.77
35121;BME280;21297;52.008;4.576;2023-06-05T05:58:56;49303.78;;;-143.47;89.04
35121;BME280;21297;52.008;4.576;2023-06-05T06:01:42;49299.88;;;-143.47;89.47
35121;BME280;21297;52.008;4.576;2023-06-05T06:04:27;49331.31;;;-143.47;88.76
35121;BME280;21297;52.008;4.576;2023-06-05T06:07:14;49323.47;;;-143.47;87.97
35121;BME280;21297;52.008;4.576;2023-06-05T06:10:01;49341.16;;;-143.47;87.68
35121;BME280;21297;52.008;4.576;2023-06-05T06:12:47;49335.25;;;-143.47;86.76
35121;BME280;21297;52.008;4.576;2023-06-05T06:15:33;49333.28;;;-143.47;87.47
35121;BME280;21297;52.008;4.576;2023-06-05T06:18:18;49421.78;;;-143.47;85.34
35121;BME280;21297;52.008;4.576;2023-06-05T06:21:04;49443.44;;;-143.47;83.33
35121;BME280;21297;52.008;4.576;2023-06-05T06:23:50;49423.75;;;-143.47;83.91
35121;BME280;21297;52.008;4.576;2023-06-05T06:26:35;49437.53;;;-143.47;83.35
35121;BME280;21297;52.008;4.576;2023-06-05T06:29:24;49476.88;;;-143.47;81.43
35121;BME280;21297;52.008;4.576;2023-06-05T06:32:10;49504.41;;;-143.47;81.75
35121;BME280;21297;52.008;4.576;2023-06-05T06:34:56;49470.97;;;-143.47;80.92
35121;BME280;21297;52.008;4.576;2023-06-05T06:37:42;49480.78;;;-143.47;81.33
35121;BME280;21297;52.008;4.576;2023-06-05T06:40:28;49453.25;;;-143.47;81.65
35121;BME280;21297;52.008;4.576;2023-06-05T06:43:14;49463.09;;;-143.47;82.24
35121;BME280;21297;52.008;4.576;2023-06-05T06:46:01;49447.38;;;-143.47;82.18
35121;BME280;21297;52.008;4.576;2023-06-05T06:48:47;49372.63;;;-143.47;83.89
35121;BME280;21297;52.008;4.576;2023-06-05T06:51:33;49459.16;;;-143.47;82.94
35121;BME280;21297;52.008;4.576;2023-06-05T06:54:18;49486.69;;;-143.47;81.69
35121;BME280;21297;52.008;4.576;2023-06-05T06:57:04;49469.00;;;-143.47;80.94
35121;BME280;21297;52.008;4.576;2023-06-05T06:59:50;49506.38;;;-143.47;79.36
35121;BME280;21297;52.008;4.576;2023-06-05T07:02:36;49539.78;;;-143.47;79.30
35121;BME280;21297;52.008;4.576;2023-06-05T07:05:23;49520.13;;;-143.47;80.09
35121;BME280;21297;52.008;4.576;2023-06-05T07:08:09;49529.97;;;-143.47;77.77
35121;BME280;21297;52.008;4.576;2023-06-05T07:10:55;49604.69;;;-143.47;77.58
35121;BME280;21297;52.008;4.576;2023-06-05T07:13:41;49561.44;;;-143.47;76.32
35121;BME280;21297;52.008;4.576;2023-06-05T07:16:26;49624.38;;;-143.47;74.63
35121;BME280;21297;52.008;4.576;2023-06-05T07:19:13;49539.78;;;-143.47;75.88
35121;BME280;21297;52.008;4.576;2023-06-05T07:22:00;49551.59;;;-143.47;75.32
35121;BME280;21297;52.008;4.576;2023-06-05T07:24:46;49541.75;;;-143.47;74.71
35121;BME280;21297;52.008;4.576;2023-06-05T07:27:34;49522.09;;;-143.47;76.32
35121;BME280;21297;52.008;4.576;2023-06-05T07:30:21;49563.41;;;-143.47;76.02
35121;BME280;21297;52.008;4.576;2023-06-05T07:33:07;49592.91;;;-143.47;75.74
35121;BME280;21297;52.008;4.576;2023-06-05T07:35:55;49681.41;;;-143.47;73.84
35121;BME280;21297;52.008;4.576;2023-06-05T07:38:40;49677.47;;;-143.47;73.44
35121;BME280;21297;52.008;4.576;2023-06-05T07:41:26;49653.88;;;-143.47;72.98
35121;BME280;21297;52.008;4.576;2023-06-05T07:44:14;49738.44;;;-143.47;72.31
35121;BME280;21297;52.008;4.576;2023-06-05T07:47:00;49669.59;;;-143.47;72.17
35121;BME280;21297;52.008;4.576;2023-06-05T07:49:56;49712.88;;;-143.47;71.74
35121;BME280;21297;52.008;4.576;2023-06-05T07:52:41;49632.22;;;-143.47;73.50
35121;BME280;21297;52.008;4.576;2023-06-05T07:55:27;49588.97;;;-143.47;75.36
35121;BME280;21297;52.008;4.576;2023-06-05T07:58:13;49651.91;;;-143.47;73.72
35121;BME280;21297;52.008;4.576;2023-06-05T08:00:59;49744.34;;;-143.47;72.22
35121;BME280;21297;52.008;4.576;2023-06-05T08:03:44;49653.88;;;-143.47;71.65
35121;BME280;21297;52.008;4.576;2023-06-05T08:06:31;49681.41;;;-143.47;72.36
35121;BME280;21297;52.008;4.576;2023-06-05T08:09:17;49661.72;;;-143.47;74.03
35121;BME280;21297;52.008;4.576;2023-06-05T08:12:03;49673.53;;;-143.47;72.41
35121;BME280;21297;52.008;4.576;2023-06-05T08:14:49;49765.97;;;-143.47;72.54
35121;BME280;21297;52.008;4.576;2023-06-05T08:17:35;49732.53;;;-143.47;69.27
35121;BME280;21297;52.008;4.576;2023-06-05T08:20:21;49701.06;;;-143.47;70.90
35121;BME280;21297;52.008;4.576;2023-06-05T08:23:06;49691.25;;;-143.47;70.48
35121;BME280;21297;52.008;4.576;2023-06-05T08:25:53;49699.09;;;-143.47;70.59
35121;BME280;21297;52.008;4.576;2023-06-05T08:28:40;49695.16;;;-143.47;70.28
35121;BME280;21297;52.008;4.576;2023-06-05T08:31:26;49722.72;;;-143.47;69.33
35121;BME280;21297;52.008;4.576;2023-06-05T08:34:12;49738.44;;;-143.47;69.86
35121;BME280;21297;52.008;4.576;2023-06-05T08:36:58;49775.81;;;-143.47;68.40
35121;BME280;21297;52.008;4.576;2023-06-05T08:39:44;49807.28;;;-143.47;67.72
35121;BME280;21297;52.008;4.576;2023-06-05T08:42:30;49807.28;;;-143.47;66.05
35121;BME280;21297;52.008;4.576;2023-06-05T08:45:16;49826.94;;;-143.47;66.99
35121;BME280;21297;52.008;4.576;2023-06-05T08:48:01;49771.88;;;-143.47;68.10
35121;BME280;21297;52.008;4.576;2023-06-05T08:50:48;49830.88;;;-143.47;67.52
35121;BME280;21297;52.008;4.576;2023-06-05T08:53:34;49834.81;;;-143.47;66.40
35121;BME280;21297;52.008;4.576;2023-06-05T08:56:20;49842.69;;;-143.47;66.78
35121;BME280;21297;52.008;4.576;2023-06-05T08:59:06;49828.91;;;-143.47;67.49
35121;BME280;21297;52.008;4.576;2023-06-05T09:01:52;49870.22;;;-143.47;64.44
35121;BME280;21297;52.008;4.576;2023-06-05T09:04:38;49858.41;;;-143.47;63.90
35121;BME280;21297;52.008;4.576;2023-06-05T09:07:24;49903.66;;;-143.47;65.06
35121;BME280;21297;52.008;4.576;2023-06-05T09:10:27;49866.28;;;-143.47;65.05
35121;BME280;21297;52.008;4.576;2023-06-05T09:13:12;49897.75;;;-143.47;63.57
35121;BME280;21297;52.008;4.576;2023-06-05T09:15:58;49921.34;;;-143.47;62.56
35121;BME280;21297;52.008;4.576;2023-06-05T09:18:57;49939.06;;;-143.47;62.32
35121;BME280;21297;52.008;4.576;2023-06-05T09:21:51;49980.38;;;-143.47;62.82
35121;BME280;21297;52.008;4.576;2023-06-05T09:24:38;49968.56;;;-143.47;62.72
35121;BME280;21297;52.008;4.576;2023-06-05T09:27:25;49992.16;;;-143.47;61.99
35121;BME280;21297;52.008;4.576;2023-06-05T09:30:13;49960.69;;;-143.47;62.25
35121;BME280;21297;52.008;4.576;2023-06-05T09:33:10;50027.56;;;-143.47;61.54
35121;BME280;21297;52.008;4.576;2023-06-05T09:36:14;50005.94;;;-143.47;60.45
35121;BME280;21297;52.008;4.576;2023-06-05T09:39:17;49994.13;;;-143.47;61.23
35121;BME280;21297;52.008;4.576;2023-06-05T09:42:03;50057.06;;;-143.47;61.54
35121;BME280;21297;52.008;4.576;2023-06-05T09:44:58;50017.75;;;-143.47;59.07
35121;BME280;21297;52.008;4.576;2023-06-05T09:47:44;49984.31;;;-143.47;59.07
35121;BME280;21297;52.008;4.576;2023-06-05T09:50:30;50055.09;;;-143.47;58.80
35121;BME280;21297;52.008;4.576;2023-06-05T09:53:17;50114.13;;;-143.47;58.02
35121;BME280;21297;52.008;4.576;2023-06-05T09:56:04;50078.72;;;-143.47;57.48
35121;BME280;21297;52.008;4.576;2023-06-05T09:58:51;50078.72;;;-143.47;58.03
35121;BME280;21297;52.008;4.576;2023-06-05T10:01:39;50133.78;;;-143.47;57.43
35121;BME280;21297;52.008;4.576;2023-06-05T10:04:27;50169.19;;;-143.47;56.46
35121;BME280;21297;52.008;4.576;2023-06-05T10:07:14;50165.25;;;-143.47;56.50
35121;BME280;21297;52.008;4.576;2023-06-05T10:10:02;50153.47;;;-143.47;56.48
35121;BME280;21297;52.008;4.576;2023-06-05T10:12:48;50102.31;;;-143.47;55.51
35121;BME280;21297;52.008;4.576;2023-06-05T10:15:34;50181.00;;;-143.47;55.12
35121;BME280;21297;52.008;4.576;2023-06-05T10:18:20;50208.53;;;-143.47;55.98
35121;BME280;21297;52.008;4.576;2023-06-05T10:21:06;50051.19;;;-143.47;57.58
35121;BME280;21297;52.008;4.576;2023-06-05T10:24:11;50186.91;;;-143.47;56.94
35121;BME280;21297;52.008;4.576;2023-06-05T10:39:25;50259.69;;;-143.47;55.23
35121;BME280;21297;52.008;4.576;2023-06-05T10:45:10;50279.34;;;-143.47;55.66
35121;BME280;21297;52.008;4.576;2023-06-05T10:47:57;50267.56;;;-143.47;55.13
35121;BME280;21297;52.008;4.576;2023-06-05T10:50:42;50338.38;;;-143.47;54.06
35121;BME280;21297;52.008;4.576;2023-06-05T10:53:42;50346.22;;;-143.47;55.08
35121;BME280;21297;52.008;4.576;2023-06-05T10:56:56;50369.84;;;-143.47;54.27
35121;BME280;21297;52.008;4.576;2023-06-05T10:59:45;50336.41;;;-143.47;54.76
35121;BME280;21297;52.008;4.576;2023-06-05T11:02:30;50454.44;;;-143.47;53.59
35121;BME280;21297;52.008;4.576;2023-06-05T11:05:16;50369.84;;;-143.47;53.51
35121;BME280;21297;52.008;4.576;2023-06-05T11:08:16;50426.88;;;-143.47;54.16
35121;BME280;21297;52.008;4.576;2023-06-05T11:11:06;50424.91;;;-143.47;52.98
35121;BME280;21297;52.008;4.576;2023-06-05T11:13:56;50436.72;;;-143.47;52.36
35121;BME280;21297;52.008;4.576;2023-06-05T11:16:42;50499.66;;;-143.47;52.24
35121;BME280;21297;52.008;4.576;2023-06-05T11:22:19;50428.84;;;-143.47;52.47
35121;BME280;21297;52.008;4.576;2023-06-05T11:28:05;50493.78;;;-143.47;52.15
35121;BME280;21297;52.008;4.576;2023-06-05T11:30:52;50493.78;;;-143.47;51.67
35121;BME280;21297;52.008;4.576;2023-06-05T11:33:38;50533.13;;;-143.47;52.00
35121;BME280;21297;52.008;4.576;2023-06-05T11:36:24;50550.81;;;-143.47;50.87
35121;BME280;21297;52.008;4.576;2023-06-05T11:39:11;50548.84;;;-143.47;51.47
35121;BME280;21297;52.008;4.576;2023-06-05T11:41:58;50558.69;;;-143.47;51.67
35121;BME280;21297;52.008;4.576;2023-06-05T11:44:43;50584.25;;;-143.47;52.03
35121;BME280;21297;52.008;4.576;2023-06-05T11:47:29;50470.16;;;-143.47;51.49
35121;BME280;21297;52.008;4.576;2023-06-05T11:50:15;50544.91;;;-143.47;50.38
35121;BME280;21297;52.008;4.576;2023-06-05T11:53:08;50558.69;;;-143.47;50.93
35121;BME280;21297;52.008;4.576;2023-06-05T11:55:55;50623.59;;;-143.47;50.15
35121;BME280;21297;52.008;4.576;2023-06-05T11:58:52;50649.19;;;-143.47;50.04
35121;BME280;21297;52.008;4.576;2023-06-05T12:01:43;50582.28;;;-143.47;50.28
35121;BME280;21297;52.008;4.576;2023-06-05T12:04:33;50596.06;;;-143.47;50.21
35121;BME280;21297;52.008;4.576;2023-06-05T12:07:29;50743.63;;;-143.47;50.12
35121;BME280;21297;52.008;4.576;2023-06-05T12:10:14;50869.53;;;-143.47;49.20
35121;BME280;21297;52.008;4.576;2023-06-05T12:13:00;50702.31;;;-143.47;50.08
35121;BME280;21297;52.008;4.576;2023-06-05T12:15:59;50560.66;;;-143.47;50.92
35121;BME280;21297;52.008;4.576;2023-06-05T12:18:45;50558.69;;;-143.47;50.97
35121;BME280;21297;52.008;4.576;2023-06-05T12:21:32;50582.28;;;-143.47;50.62
35121;BME280;21297;52.008;4.576;2023-06-05T12:24:25;50645.25;;;-143.47;49.55
35121;BME280;21297;52.008;4.576;2023-06-05T12:27:14;50759.34;;;-143.47;49.44
35121;BME280;21297;52.008;4.576;2023-06-05T12:29:59;50782.97;;;-143.47;50.09
35121;BME280;21297;52.008;4.576;2023-06-05T12:32:46;50739.69;;;-143.47;49.78
35121;BME280;21297;52.008;4.576;2023-06-05T12:35:34;50814.44;;;-143.47;49.75
35121;BME280;21297;52.008;4.576;2023-06-05T12:38:20;50662.94;;;-143.47;49.45
35121;BME280;21297;52.008;4.576;2023-06-05T12:41:07;50767.22;;;-143.47;49.80
35121;BME280;21297;52.008;4.576;2023-06-05T12:44:00;50712.13;;;-143.47;48.77
35121;BME280;21297;52.008;4.576;2023-06-05T12:46:46;50824.28;;;-143.47;48.64
35121;BME280;21297;52.008;4.576;2023-06-05T12:49:31;50851.81;;;-143.47;49.29
35121;BME280;21297;52.008;4.576;2023-06-05T12:52:17;50883.28;;;-143.47;47.50
35121;BME280;21297;52.008;4.576;2023-06-05T12:55:04;50967.91;;;-143.47;49.61
35121;BME280;21297;52.008;4.576;2023-06-05T12:57:50;50889.19;;;-143.47;48.33
35121;BME280;21297;52.008;4.576;2023-06-05T13:00:36;50981.66;;;-143.47;48.34
35121;BME280;21297;52.008;4.576;2023-06-05T13:03:22;50969.88;;;-143.47;46.82
35121;BME280;21297;52.008;4.576;2023-06-05T13:06:08;50975.75;;;-143.47;48.36
35121;BME280;21297;52.008;4.576;2023-06-05T13:08:54;51019.03;;;-143.47;47.75
35121;BME280;21297;52.008;4.576;2023-06-05T13:11:39;50796.72;;;-143.47;49.16
35121;BME280;21297;52.008;4.576;2023-06-05T13:14:26;50881.31;;;-143.47;47.82
35121;BME280;21297;52.008;4.576;2023-06-05T13:17:12;50924.59;;;-143.47;49.44
35121;BME280;21297;52.008;4.576;2023-06-05T13:19:57;51070.19;;;-143.47;47.93
35121;BME280;21297;52.008;4.576;2023-06-05T13:22:43;51105.63;;;-143.47;47.62
35121;BME280;21297;52.008;4.576;2023-06-05T13:25:29;50987.56;;;-143.47;46.64
35121;BME280;21297;52.008;4.576;2023-06-05T13:28:14;51097.75;;;-143.47;46.60
35121;BME280;21297;52.008;4.576;2023-06-05T13:31:00;50904.94;;;-143.47;50.48
35121;BME280;21297;52.008;4.576;2023-06-05T13:33:47;50720.00;;;-143.47;53.10
35121;BME280;21297;52.008;4.576;2023-06-05T13:36:32;50824.28;;;-143.47;52.38
35121;BME280;21297;52.008;4.576;2023-06-05T13:39:23;50781.00;;;-143.47;52.84
35121;BME280;21297;52.008;4.576;2023-06-05T13:42:08;50775.09;;;-143.47;51.19
35121;BME280;21297;52.008;4.576;2023-06-05T13:44:55;50779.03;;;-143.47;51.07
35121;BME280;21297;52.008;4.576;2023-06-05T13:47:41;50678.69;;;-143.47;51.87
35121;BME280;21297;52.008;4.576;2023-06-05T13:50:27;50708.19;;;-143.47;52.95
35121;BME280;21297;52.008;4.576;2023-06-05T13:53:12;50676.72;;;-143.47;53.79
35121;BME280;21297;52.008;4.576;2023-06-05T13:55:58;50779.03;;;-143.47;52.54
35121;BME280;21297;52.008;4.576;2023-06-05T13:58:44;50792.78;;;-143.47;51.79
35121;BME280;21297;52.008;4.576;2023-06-05T14:01:32;50818.38;;;-143.47;52.72
35121;BME280;21297;52.008;4.576;2023-06-05T14:04:18;50712.13;;;-143.47;52.98
35121;BME280;21297;52.008;4.576;2023-06-05T14:07:04;50653.13;;;-143.47;53.14
35121;BME280;21297;52.008;4.576;2023-06-05T14:09:50;50751.47;;;-143.47;51.18
35121;BME280;21297;52.008;4.576;2023-06-05T14:12:35;50798.69;;;-143.47;52.34
35121;BME280;21297;52.008;4.576;2023-06-05T14:15:21;50680.66;;;-143.47;52.74
35121;BME280;21297;52.008;4.576;2023-06-05T14:18:07;50680.66;;;-143.47;54.94
35121;BME280;21297;52.008;4.576;2023-06-05T14:20:54;50771.16;;;-143.47;53.13
35121;BME280;21297;52.008;4.576;2023-06-05T14:23:40;50688.53;;;-143.47;55.67
35121;BME280;21297;52.008;4.576;2023-06-05T14:26:26;50841.97;;;-143.47;53.27
35121;BME280;21297;52.008;4.576;2023-06-05T14:29:13;50637.38;;;-143.47;55.02
35121;BME280;21297;52.008;4.576;2023-06-05T14:31:59;50712.13;;;-143.47;54.85
35121;BME280;21297;52.008;4.576;2023-06-05T14:34:45;50542.94;;;-143.47;57.32
35121;BME280;21297;52.008;4.576;2023-06-05T14:37:31;50725.91;;;-143.47;53.43
35121;BME280;21297;52.008;4.576;2023-06-05T14:40:17;50633.44;;;-143.47;54.86
35121;BME280;21297;52.008;4.576;2023-06-05T14:43:03;50653.13;;;-143.47;54.73